sensor_id;sensor_type;location;lat;lon;timestamp;P1;durP1;ratioP1;P2;durP2;ratioP2
46613;SDS011;32338;50.430;6.806;2022-09-09T00:02:18;463.23;;;433.15;;
46613;SDS011;32338;50.430;6.806;2022-09-09T00:04:47;471.83;;;441.70;;
46613;SDS011;32338;50.430;6.806;2022-09-09T00:07:22;470.67;;;440.75;;
46613;SDS011;32338;50.430;6.806;2022-09-09T00:10:00;432.67;;;405.27;;
46613;SDS011;32338;50.430;6.806;2022-09-09T00:12:40;451.58;;;422.60;;
46613;SDS011;32338;50.430;6.806;2022-09-09T00:15:17;421.50;;;394.75;;
46613;SDS011;32338;50.430;6.806;2022-09-09T00:17:47;445.92;;;417.77;;
46613;SDS011;32338;50.430;6.806;2022-09-09T00:20:20;438.48;;;410.35;;
46613;SDS011;32338;50.430;6.806;2022-09-09T00:22:53;459.38;;;430.50;;
46613;SDS011;32338;50.430;6.806;2022-09-09T00:25:29;501.67;;;469.10;;
46613;SDS011;32338;50.430;6.806;2022-09-09T00:28:01;430.37;;;402.93;;
46613;SDS011;32338;50.430;6.806;2022-09-09T00:30:30;429.38;;;402.17;;
46613;SDS011;32338;50.430;6.806;2022-09-09T00:33:01;460.10;;;429.92;;
46613;SDS011;32338;50.430;6.806;2022-09-09T00:35:37;422.33;;;395.58;;
46613;SDS011;32338;50.430;6.806;2022-09-09T00:38:06;441.05;;;413.23;;
46613;SDS011;32338;50.430;6.806;2022-09-09T00:40:41;437.45;;;409.75;;
46613;SDS011;32338;50.430;6.806;2022-09-09T00:43:24;410.17;;;383.73;;
46613;SDS011;32338;50.430;6.806;2022-09-09T00:46:01;449.17;;;420.25;;
46613;SDS011;32338;50.430;6.806;2022-09-09T00:48:43;395.60;;;370.52;;
46613;SDS011;32338;50.430;6.806;2022-09-09T00:51:21;413.13;;;387.55;;
46613;SDS011;32338;50.430;6.806;2022-09-09T00:54:05;432.83;;;405.08;;
46613;SDS011;32338;50.430;6.806;2022-09-09T00:56:47;421.10;;;394.80;;
46613;SDS011;32338;50.430;6.806;2022-09-09T00:59:25;408.27;;;382.52;;
46613;SDS011;32338;50.430;6.806;2022-09-09T01:02:02;428.75;;;401.13;;
46613;SDS011;32338;50.430;6.806;2022-09-09T01:04:35;448.90;;;419.10;;
46613;SDS011;32338;50.430;6.806;2022-09-09T01:07:04;456.65;;;427.95;;
46613;SDS011;32338;50.430;6.806;2022-09-09T01:09:38;443.98;;;415.70;;
46613;SDS011;32338;50.430;6.806;2022-09-09T01:12:14;438.65;;;411.00;;
46613;SDS011;32338;50.430;6.806;2022-09-09T01:14:42;456.50;;;428.35;;
46613;SDS011;32338;50.430;6.806;2022-09-09T01:17:14;443.30;;;414.27;;
46613;SDS011;32338;50.430;6.806;2022-09-09T01:19:55;440.05;;;412.73;;
46613;SDS011;32338;50.430;6.806;2022-09-09T01:22:32;413.88;;;387.77;;
46613;SDS011;32338;50.430;6.806;2022-09-09T01:25:12;446.60;;;418.08;;
46613;SDS011;32338;50.430;6.806;2022-09-09T01:27:48;412.70;;;386.65;;
46613;SDS011;32338;50.430;6.806;2022-09-09T01:30:17;437.30;;;409.52;;
46613;SDS011;32338;50.430;6.806;2022-09-09T01:32:45;435.73;;;407.77;;
46613;SDS011;32338;50.430;6.806;2022-09-09T01:35:19;437.13;;;409.55;;
46613;SDS011;32338;50.430;6.806;2022-09-09T01:37:55;442.08;;;414.52;;
46613;SDS011;32338;50.430;6.806;2022-09-09T01:40:22;432.88;;;405.63;;
46613;SDS011;32338;50.430;6.806;2022-09-09T01:42:51;446.15;;;417.33;;
46613;SDS011;32338;50.430;6.806;2022-09-09T01:45:18;435.15;;;407.33;;
46613;SDS011;32338;50.430;6.806;2022-09-09T01:47:45;460.00;;;430.67;;
46613;SDS011;32338;50.430;6.806;2022-09-09T01:50:13;463.80;;;433.67;;
46613;SDS011;32338;50.430;6.806;2022-09-09T01:52:41;450.58;;;421.67;;
46613;SDS011;32338;50.430;6.806;2022-09-09T01:55:09;444.70;;;415.88;;
46613;SDS011;32338;50.430;6.806;2022-09-09T01:57:38;453.08;;;424.05;;
46613;SDS011;32338;50.430;6.806;2022-09-09T02:00:12;442.83;;;414.60;;
46613;SDS011;32338;50.430;6.806;2022-09-09T02:02:43;434.55;;;407.00;;
46613;SDS011;32338;50.430;6.806;2022-09-09T02:05:22;450.10;;;421.80;;
46613;SDS011;32338;50.430;6.806;2022-09-09T02:08:00;463.85;;;433.65;;
46613;SDS011;32338;50.430;6.806;2022-09-09T02:10:32;446.35;;;417.92;;
46613;SDS011;32338;50.430;6.806;2022-09-09T02:13:04;468.48;;;438.58;;
46613;SDS011;32338;50.430;6.806;2022-09-09T02:15:38;444.13;;;414.67;;
46613;SDS011;32338;50.430;6.806;2022-09-09T02:18:13;438.77;;;410.98;;
46613;SDS011;32338;50.430;6.806;2022-09-09T02:20:45;439.60;;;412.33;;
46613;SDS011;32338;50.430;6.806;2022-09-09T02:23:13;437.90;;;410.92;;
46613;SDS011;32338;50.430;6.806;2022-09-09T02:25:41;463.13;;;433.85;;
46613;SDS011;32338;50.430;6.806;2022-09-09T02:28:09;459.73;;;430.63;;
46613;SDS011;32338;50.430;6.806;2022-09-09T02:30:39;455.35;;;426.42;;
46613;SDS011;32338;50.430;6.806;2022-09-09T02:33:06;441.00;;;413.17;;
46613;SDS011;32338;50.430;6.806;2022-09-09T02:35:35;455.88;;;426.75;;
46613;SDS011;32338;50.430;6.806;2022-09-09T02:38:05;418.67;;;391.35;;
46613;SDS011;32338;50.430;6.806;2022-09-09T02:40:36;455.10;;;424.85;;
46613;SDS011;32338;50.430;6.806;2022-09-09T02:43:03;462.80;;;433.10;;
46613;SDS011;32338;50.430;6.806;2022-09-09T02:45:31;458.83;;;429.10;;
46613;SDS011;32338;50.430;6.806;2022-09-09T02:50:40;386.00;;;361.20;;
46613;SDS011;32338;50.430;6.806;2022-09-09T02:53:16;422.70;;;396.25;;
46613;SDS011;32338;50.430;6.806;2022-09-09T02:55:46;402.92;;;377.90;;
46613;SDS011;32338;50.430;6.806;2022-09-09T02:58:14;438.95;;;410.58;;
46613;SDS011;32338;50.430;6.806;2022-09-09T03:00:43;443.33;;;414.50;;
46613;SDS011;32338;50.430;6.806;2022-09-09T03:03:12;415.42;;;390.00;;
46613;SDS011;32338;50.430;6.806;2022-09-09T03:05:40;417.70;;;391.17;;
46613;SDS011;32338;50.430;6.806;2022-09-09T03:08:07;427.00;;;399.90;;
46613;SDS011;32338;50.430;6.806;2022-09-09T03:10:34;405.88;;;379.58;;
46613;SDS011;32338;50.430;6.806;2022-09-09T03:13:02;416.27;;;390.20;;
46613;SDS011;32338;50.430;6.806;2022-09-09T03:15:29;433.98;;;406.88;;
46613;SDS011;32338;50.430;6.806;2022-09-09T03:17:56;461.38;;;432.38;;
46613;SDS011;32338;50.430;6.806;2022-09-09T03:20:24;401.75;;;376.70;;
46613;SDS011;32338;50.430;6.806;2022-09-09T03:22:52;412.52;;;386.05;;
46613;SDS011;32338;50.430;6.806;2022-09-09T03:25:19;412.88;;;387.17;;
46613;SDS011;32338;50.430;6.806;2022-09-09T03:27:46;417.33;;;391.42;;
46613;SDS011;32338;50.430;6.806;2022-09-09T03:30:12;447.63;;;419.35;;
46613;SDS011;32338;50.430;6.806;2022-09-09T03:32:40;403.23;;;376.63;;
46613;SDS011;32338;50.430;6.806;2022-09-09T03:35:07;423.48;;;396.67;;
46613;SDS011;32338;50.430;6.806;2022-09-09T03:37:35;395.15;;;370.23;;
46613;SDS011;32338;50.430;6.806;2022-09-09T03:40:04;392.73;;;367.65;;
46613;SDS011;32338;50.430;6.806;2022-09-09T03:42:31;408.42;;;383.25;;
46613;SDS011;32338;50.430;6.806;2022-09-09T03:44:57;433.42;;;405.52;;
46613;SDS011;32338;50.430;6.806;2022-09-09T03:47:24;408.63;;;381.60;;
46613;SDS011;32338;50.430;6.806;2022-09-09T03:49:51;409.05;;;383.65;;
46613;SDS011;32338;50.430;6.806;2022-09-09T03:52:17;406.73;;;382.00;;
46613;SDS011;32338;50.430;6.806;2022-09-09T03:54:46;418.40;;;392.27;;
46613;SDS011;32338;50.430;6.806;2022-09-09T03:57:12;406.02;;;379.85;;
46613;SDS011;32338;50.430;6.806;2022-09-09T03:59:41;421.45;;;395.08;;
46613;SDS011;32338;50.430;6.806;2022-09-09T04:02:08;412.35;;;386.20;;
46613;SDS011;32338;50.430;6.806;2022-09-09T04:04:35;398.85;;;374.05;;
46613;SDS011;32338;50.430;6.806;2022-09-09T04:07:01;415.05;;;388.30;;
46613;SDS011;32338;50.430;6.806;2022-09-09T04:09:31;381.35;;;356.98;;
46613;SDS011;32338;50.430;6.806;2022-09-09T04:11:59;389.08;;;364.52;;
46613;SDS011;32338;50.430;6.806;2022-09-09T04:14:25;401.02;;;375.30;;
46613;SDS011;32338;50.430;6.806;2022-09-09T04:16:53;410.40;;;385.00;;
46613;SDS011;32338;50.430;6.806;2022-09-09T04:19:21;390.33;;;365.70;;
46613;SDS011;32338;50.430;6.806;2022-09-09T04:21:47;416.83;;;390.90;;
46613;SDS011;32338;50.430;6.806;2022-09-09T04:24:16;389.58;;;364.67;;
46613;SDS011;32338;50.430;6.806;2022-09-09T04:26:43;392.02;;;367.17;;
46613;SDS011;32338;50.430;6.806;2022-09-09T04:29:13;392.33;;;367.20;;
46613;SDS011;32338;50.430;6.806;2022-09-09T04:31:40;385.90;;;361.13;;
46613;SDS011;32338;50.430;6.806;2022-09-09T04:34:07;378.27;;;355.00;;
46613;SDS011;32338;50.430;6.806;2022-09-09T04:36:33;386.23;;;361.80;;
46613;SDS011;32338;50.430;6.806;2022-09-09T04:39:01;393.90;;;369.20;;
46613;SDS011;32338;50.430;6.806;2022-09-09T04:41:28;424.75;;;397.40;;
46613;SDS011;32338;50.430;6.806;2022-09-09T04:43:56;430.52;;;403.67;;
46613;SDS011;32338;50.430;6.806;2022-09-09T04:46:24;402.75;;;377.30;;
46613;SDS011;32338;50.430;6.806;2022-09-09T04:48:51;401.40;;;375.77;;
46613;SDS011;32338;50.430;6.806;2022-09-09T04:51:18;381.67;;;357.95;;
46613;SDS011;32338;50.430;6.806;2022-09-09T04:53:45;417.60;;;390.83;;
46613;SDS011;32338;50.430;6.806;2022-09-09T04:56:14;403.10;;;377.50;;
46613;SDS011;32338;50.430;6.806;2022-09-09T04:58:42;398.45;;;373.27;;
46613;SDS011;32338;50.430;6.806;2022-09-09T05:01:09;407.58;;;381.55;;
46613;SDS011;32338;50.430;6.806;2022-09-09T05:03:39;415.30;;;389.10;;
46613;SDS011;32338;50.430;6.806;2022-09-09T05:06:06;394.48;;;369.33;;
46613;SDS011;32338;50.430;6.806;2022-09-09T05:08:34;404.75;;;378.80;;
46613;SDS011;32338;50.430;6.806;2022-09-09T05:11:02;395.25;;;371.25;;
46613;SDS011;32338;50.430;6.806;2022-09-09T05:13:28;406.08;;;380.55;;
46613;SDS011;32338;50.430;6.806;2022-09-09T05:15:57;376.25;;;353.27;;
46613;SDS011;32338;50.430;6.806;2022-09-09T05:18:23;408.17;;;382.52;;
46613;SDS011;32338;50.430;6.806;2022-09-09T05:20:51;401.27;;;376.40;;
46613;SDS011;32338;50.430;6.806;2022-09-09T05:23:18;382.10;;;357.52;;
46613;SDS011;32338;50.430;6.806;2022-09-09T05:25:53;396.02;;;370.83;;
46613;SDS011;32338;50.430;6.806;2022-09-09T05:28:22;396.00;;;371.20;;
46613;SDS011;32338;50.430;6.806;2022-09-09T05:30:54;435.83;;;406.90;;
46613;SDS011;32338;50.430;6.806;2022-09-09T05:33:22;410.77;;;384.50;;
46613;SDS011;32338;50.430;6.806;2022-09-09T05:35:55;474.48;;;442.80;;
46613;SDS011;32338;50.430;6.806;2022-09-09T05:38:25;373.75;;;350.38;;
46613;SDS011;32338;50.430;6.806;2022-09-09T05:40:51;405.80;;;380.55;;
46613;SDS011;32338;50.430;6.806;2022-09-09T05:43:19;382.23;;;358.60;;
46613;SDS011;32338;50.430;6.806;2022-09-09T05:45:46;377.42;;;352.70;;
46613;SDS011;32338;50.430;6.806;2022-09-09T05:48:13;393.23;;;368.35;;
46613;SDS011;32338;50.430;6.806;2022-09-09T05:50:40;378.88;;;354.17;;
46613;SDS011;32338;50.430;6.806;2022-09-09T05:53:09;450.92;;;420.58;;
46613;SDS011;32338;50.430;6.806;2022-09-09T05:55:36;414.17;;;387.80;;
46613;SDS011;32338;50.430;6.806;2022-09-09T05:58:02;394.30;;;369.23;;
46613;SDS011;32338;50.430;6.806;2022-09-09T06:00:29;436.17;;;407.73;;
46613;SDS011;32338;50.430;6.806;2022-09-09T06:02:56;489.92;;;457.75;;
46613;SDS011;32338;50.430;6.806;2022-09-09T06:05:23;427.10;;;400.00;;
46613;SDS011;32338;50.430;6.806;2022-09-09T06:07:52;397.88;;;372.17;;
46613;SDS011;32338;50.430;6.806;2022-09-09T06:10:20;408.70;;;382.58;;
46613;SDS011;32338;50.430;6.806;2022-09-09T06:12:47;453.45;;;422.67;;
46613;SDS011;32338;50.430;6.806;2022-09-09T06:15:14;367.95;;;343.67;;
46613;SDS011;32338;50.430;6.806;2022-09-09T06:17:40;386.08;;;361.05;;
46613;SDS011;32338;50.430;6.806;2022-09-09T06:20:08;372.50;;;348.80;;
46613;SDS011;32338;50.430;6.806;2022-09-09T06:22:35;374.35;;;349.70;;
46613;SDS011;32338;50.430;6.806;2022-09-09T06:25:01;361.60;;;337.98;;
46613;SDS011;32338;50.430;6.806;2022-09-09T06:27:30;391.80;;;366.67;;
46613;SDS011;32338;50.430;6.806;2022-09-09T06:29:56;361.73;;;338.48;;
46613;SDS011;32338;50.430;6.806;2022-09-09T06:32:23;360.50;;;336.73;;
46613;SDS011;32338;50.430;6.806;2022-09-09T06:34:50;373.35;;;349.33;;
46613;SDS011;32338;50.430;6.806;2022-09-09T06:37:16;354.27;;;332.25;;
46613;SDS011;32338;50.430;6.806;2022-09-09T06:39:43;399.38;;;373.33;;
46613;SDS011;32338;50.430;6.806;2022-09-09T06:42:09;363.70;;;340.60;;
46613;SDS011;32338;50.430;6.806;2022-09-09T06:44:37;435.05;;;407.10;;
46613;SDS011;32338;50.430;6.806;2022-09-09T06:47:04;403.90;;;377.58;;
46613;SDS011;32338;50.430;6.806;2022-09-09T06:49:30;409.17;;;383.35;;
46613;SDS011;32338;50.430;6.806;2022-09-09T06:51:57;389.17;;;363.40;;
46613;SDS011;32338;50.430;6.806;2022-09-09T06:54:24;385.92;;;360.33;;
46613;SDS011;32338;50.430;6.806;2022-09-09T06:56:50;405.50;;;379.58;;
46613;SDS011;32338;50.430;6.806;2022-09-09T06:59:17;399.95;;;374.08;;
46613;SDS011;32338;50.430;6.806;2022-09-09T07:01:45;411.00;;;384.65;;
46613;SDS011;32338;50.430;6.806;2022-09-09T07:04:12;371.70;;;347.88;;
46613;SDS011;32338;50.430;6.806;2022-09-09T07:06:39;390.75;;;364.77;;
46613;SDS011;32338;50.430;6.806;2022-09-09T07:09:08;386.15;;;361.00;;
46613;SDS011;32338;50.430;6.806;2022-09-09T07:11:37;469.98;;;438.10;;
46613;SDS011;32338;50.430;6.806;2022-09-09T07:14:06;401.77;;;375.95;;
46613;SDS011;32338;50.430;6.806;2022-09-09T07:16:33;404.95;;;379.23;;
46613;SDS011;32338;50.430;6.806;2022-09-09T07:19:03;369.42;;;345.98;;
46613;SDS011;32338;50.430;6.806;2022-09-09T07:21:31;410.48;;;384.48;;
46613;SDS011;32338;50.430;6.806;2022-09-09T07:23:58;356.55;;;333.85;;
46613;SDS011;32338;50.430;6.806;2022-09-09T07:26:26;372.70;;;349.33;;
46613;SDS011;32338;50.430;6.806;2022-09-09T07:28:55;390.02;;;364.38;;
46613;SDS011;32338;50.430;6.806;2022-09-09T07:31:23;449.23;;;419.92;;
46613;SDS011;32338;50.430;6.806;2022-09-09T07:33:51;544.60;;;505.40;;
46613;SDS011;32338;50.430;6.806;2022-09-09T07:36:20;383.55;;;359.70;;
46613;SDS011;32338;50.430;6.806;2022-09-09T07:38:49;399.45;;;373.92;;
46613;SDS011;32338;50.430;6.806;2022-09-09T07:41:18;640.63;;;591.47;;
46613;SDS011;32338;50.430;6.806;2022-09-09T07:43:47;417.45;;;388.70;;
46613;SDS011;32338;50.430;6.806;2022-09-09T07:46:15;354.08;;;331.98;;
46613;SDS011;32338;50.430;6.806;2022-09-09T07:48:44;345.88;;;324.98;;
46613;SDS011;32338;50.430;6.806;2022-09-09T07:51:12;372.15;;;349.27;;
46613;SDS011;32338;50.430;6.806;2022-09-09T07:53:44;357.55;;;335.10;;
46613;SDS011;32338;50.430;6.806;2022-09-09T07:56:12;506.90;;;470.55;;
46613;SDS011;32338;50.430;6.806;2022-09-09T07:58:41;368.02;;;345.67;;
46613;SDS011;32338;50.430;6.806;2022-09-09T08:01:12;335.08;;;314.52;;
46613;SDS011;32338;50.430;6.806;2022-09-09T08:03:41;382.95;;;359.42;;
46613;SDS011;32338;50.430;6.806;2022-09-09T08:06:08;372.35;;;349.10;;
46613;SDS011;32338;50.430;6.806;2022-09-09T08:08:35;408.95;;;382.70;;
46613;SDS011;32338;50.430;6.806;2022-09-09T08:11:06;378.83;;;355.95;;
46613;SDS011;32338;50.430;6.806;2022-09-09T08:13:35;329.45;;;309.50;;
46613;SDS011;32338;50.430;6.806;2022-09-09T08:16:05;396.15;;;370.52;;
46613;SDS011;32338;50.430;6.806;2022-09-09T08:18:33;322.58;;;303.52;;
46613;SDS011;32338;50.430;6.806;2022-09-09T08:21:07;367.42;;;345.15;;
46613;SDS011;32338;50.430;6.806;2022-09-09T08:23:36;362.35;;;340.48;;
46613;SDS011;32338;50.430;6.806;2022-09-09T08:26:06;362.05;;;339.77;;
46613;SDS011;32338;50.430;6.806;2022-09-09T08:28:35;346.15;;;325.02;;
46613;SDS011;32338;50.430;6.806;2022-09-09T08:31:06;360.70;;;338.70;;
46613;SDS011;32338;50.430;6.806;2022-09-09T08:33:34;345.63;;;324.95;;
46613;SDS011;32338;50.430;6.806;2022-09-09T08:36:02;340.35;;;319.88;;
46613;SDS011;32338;50.430;6.806;2022-09-09T08:38:29;324.95;;;305.48;;
46613;SDS011;32338;50.430;6.806;2022-09-09T08:40:57;324.63;;;305.40;;
46613;SDS011;32338;50.430;6.806;2022-09-09T08:43:42;310.98;;;291.95;;
46613;SDS011;32338;50.430;6.806;2022-09-09T08:46:12;330.20;;;310.35;;
46613;SDS011;32338;50.430;6.806;2022-09-09T08:48:46;331.73;;;312.17;;
46613;SDS011;32338;50.430;6.806;2022-09-09T08:51:18;309.90;;;291.60;;
46613;SDS011;32338;50.430;6.806;2022-09-09T08:53:46;317.77;;;298.63;;
46613;SDS011;32338;50.430;6.806;2022-09-09T08:56:18;338.08;;;317.88;;
46613;SDS011;32338;50.430;6.806;2022-09-09T08:58:47;317.30;;;298.13;;
46613;SDS011;32338;50.430;6.806;2022-09-09T09:01:23;319.35;;;300.75;;
46613;SDS011;32338;50.430;6.806;2022-09-09T09:04:02;364.60;;;341.08;;
46613;SDS011;32338;50.430;6.806;2022-09-09T09:06:40;314.30;;;294.90;;
46613;SDS011;32338;50.430;6.806;2022-09-09T09:09:15;316.15;;;297.30;;
46613;SDS011;32338;50.430;6.806;2022-09-09T09:11:51;293.50;;;276.15;;
46613;SDS011;32338;50.430;6.806;2022-09-09T09:14:21;315.20;;;296.60;;
46613;SDS011;32338;50.430;6.806;2022-09-09T09:16:51;298.38;;;280.63;;
46613;SDS011;32338;50.430;6.806;2022-09-09T09:19:20;310.58;;;292.25;;
46613;SDS011;32338;50.430;6.806;2022-09-09T09:21:51;404.70;;;378.75;;
46613;SDS011;32338;50.430;6.806;2022-09-09T09:24:24;301.90;;;284.35;;
46613;SDS011;32338;50.430;6.806;2022-09-09T09:26:59;307.90;;;289.25;;
46613;SDS011;32338;50.430;6.806;2022-09-09T09:29:38;299.92;;;282.25;;
46613;SDS011;32338;50.430;6.806;2022-09-09T09:32:07;301.35;;;283.50;;
46613;SDS011;32338;50.430;6.806;2022-09-09T09:34:39;290.15;;;273.05;;
46613;SDS011;32338;50.430;6.806;2022-09-09T09:37:11;308.88;;;290.30;;
46613;SDS011;32338;50.430;6.806;2022-09-09T09:39:44;294.48;;;276.88;;
46613;SDS011;32338;50.430;6.806;2022-09-09T09:42:13;291.00;;;273.65;;
46613;SDS011;32338;50.430;6.806;2022-09-09T09:44:42;286.23;;;268.85;;
46613;SDS011;32338;50.430;6.806;2022-09-09T09:47:11;302.95;;;284.80;;
46613;SDS011;32338;50.430;6.806;2022-09-09T09:49:39;310.00;;;291.40;;
46613;SDS011;32338;50.430;6.806;2022-09-09T09:52:17;367.55;;;345.17;;
46613;SDS011;32338;50.430;6.806;2022-09-09T09:54:48;294.38;;;276.63;;
46613;SDS011;32338;50.430;6.806;2022-09-09T09:57:17;299.50;;;281.58;;
46613;SDS011;32338;50.430;6.806;2022-09-09T09:59:48;300.45;;;282.60;;
46613;SDS011;32338;50.430;6.806;2022-09-09T10:02:16;319.10;;;300.15;;
46613;SDS011;32338;50.430;6.806;2022-09-09T10:04:45;309.27;;;290.20;;
46613;SDS011;32338;50.430;6.806;2022-09-09T10:07:12;516.75;;;479.48;;
46613;SDS011;32338;50.430;6.806;2022-09-09T10:09:43;315.20;;;295.85;;
46613;SDS011;32338;50.430;6.806;2022-09-09T10:12:13;298.58;;;280.73;;
46613;SDS011;32338;50.430;6.806;2022-09-09T10:14:53;290.77;;;273.15;;
46613;SDS011;32338;50.430;6.806;2022-09-09T10:17:29;318.05;;;299.48;;
46613;SDS011;32338;50.430;6.806;2022-09-09T10:23:02;304.08;;;286.27;;
46613;SDS011;32338;50.430;6.806;2022-09-09T10:25:52;326.58;;;306.77;;
46613;SDS011;32338;50.430;6.806;2022-09-09T10:28:36;334.13;;;313.92;;
46613;SDS011;32338;50.430;6.806;2022-09-09T10:31:19;335.95;;;315.60;;
46613;SDS011;32338;50.430;6.806;2022-09-09T10:33:58;286.23;;;268.98;;
46613;SDS011;32338;50.430;6.806;2022-09-09T10:36:36;369.88;;;347.75;;
46613;SDS011;32338;50.430;6.806;2022-09-09T10:39:13;453.33;;;424.02;;
46613;SDS011;32338;50.430;6.806;2022-09-09T10:41:52;326.88;;;307.50;;
46613;SDS011;32338;50.430;6.806;2022-09-09T10:44:32;351.73;;;331.08;;
46613;SDS011;32338;50.430;6.806;2022-09-09T10:47:12;479.67;;;447.30;;
46613;SDS011;32338;50.430;6.806;2022-09-09T10:50:04;354.80;;;333.30;;
46613;SDS011;32338;50.430;6.806;2022-09-09T10:52:41;311.70;;;293.58;;
46613;SDS011;32338;50.430;6.806;2022-09-09T10:55:19;461.10;;;431.33;;
46613;SDS011;32338;50.430;6.806;2022-09-09T10:57:47;324.10;;;304.75;;
46613;SDS011;32338;50.430;6.806;2022-09-09T11:00:19;331.25;;;311.73;;
46613;SDS011;32338;50.430;6.806;2022-09-09T11:02:48;334.17;;;313.48;;
46613;SDS011;32338;50.430;6.806;2022-09-09T11:05:20;299.55;;;281.90;;
46613;SDS011;32338;50.430;6.806;2022-09-09T11:07:54;303.15;;;285.60;;
46613;SDS011;32338;50.430;6.806;2022-09-09T11:10:24;298.23;;;280.15;;
46613;SDS011;32338;50.430;6.806;2022-09-09T11:12:57;268.55;;;252.85;;
46613;SDS011;32338;50.430;6.806;2022-09-09T11:15:33;285.50;;;268.73;;
46613;SDS011;32338;50.430;6.806;2022-09-09T11:18:08;278.60;;;262.27;;
46613;SDS011;32338;50.430;6.806;2022-09-09T11:20:40;287.20;;;270.63;;
46613;SDS011;32338;50.430;6.806;2022-09-09T11:23:09;289.70;;;272.20;;
46613;SDS011;32338;50.430;6.806;2022-09-09T11:25:39;286.77;;;269.67;;
46613;SDS011;32338;50.430;6.806;2022-09-09T11:28:16;301.77;;;284.02;;
46613;SDS011;32338;50.430;6.806;2022-09-09T11:30:58;271.60;;;255.70;;
46613;SDS011;32338;50.430;6.806;2022-09-09T11:33:45;292.40;;;274.63;;
46613;SDS011;32338;50.430;6.806;2022-09-09T11:36:36;266.88;;;251.25;;
46613;SDS011;32338;50.430;6.806;2022-09-09T11:39:38;309.85;;;291.48;;
46613;SDS011;32338;50.430;6.806;2022-09-09T11:42:15;258.63;;;244.13;;
46613;SDS011;32338;50.430;6.806;2022-09-09T11:44:44;296.30;;;279.05;;
46613;SDS011;32338;50.430;6.806;2022-09-09T11:47:22;279.20;;;262.42;;
46613;SDS011;32338;50.430;6.806;2022-09-09T11:49:54;241.77;;;228.00;;
46613;SDS011;32338;50.430;6.806;2022-09-09T11:52:21;252.77;;;238.13;;
46613;SDS011;32338;50.430;6.806;2022-09-09T11:54:51;264.25;;;248.45;;
46613;SDS011;32338;50.430;6.806;2022-09-09T11:57:23;282.58;;;266.05;;
46613;SDS011;32338;50.430;6.806;2022-09-09T11:59:53;278.83;;;262.35;;
46613;SDS011;32338;50.430;6.806;2022-09-09T12:02:23;276.98;;;260.65;;
46613;SDS011;32338;50.430;6.806;2022-09-09T12:04:55;210.40;;;198.23;;
46613;SDS011;32338;50.430;6.806;2022-09-09T12:07:28;205.73;;;193.55;;
46613;SDS011;32338;50.430;6.806;2022-09-09T12:10:01;215.25;;;202.77;;
46613;SDS011;32338;50.430;6.806;2022-09-09T12:12:32;166.60;;;156.65;;
46613;SDS011;32338;50.430;6.806;2022-09-09T12:15:02;205.93;;;193.43;;
46613;SDS011;32338;50.430;6.806;2022-09-09T12:17:47;165.05;;;155.52;;
46613;SDS011;32338;50.430;6.806;2022-09-09T12:20:17;175.13;;;164.60;;
46613;SDS011;32338;50.430;6.806;2022-09-09T12:22:55;189.43;;;178.30;;
46613;SDS011;32338;50.430;6.806;2022-09-09T12:25:35;197.00;;;185.32;;
46613;SDS011;32338;50.430;6.806;2022-09-09T12:28:15;198.30;;;186.45;;
46613;SDS011;32338;50.430;6.806;2022-09-09T12:30:45;195.68;;;184.27;;
46613;SDS011;32338;50.430;6.806;2022-09-09T12:33:22;209.02;;;196.60;;
46613;SDS011;32338;50.430;6.806;2022-09-09T12:35:51;233.20;;;219.35;;
46613;SDS011;32338;50.430;6.806;2022-09-09T12:38:22;243.75;;;229.57;;
46613;SDS011;32338;50.430;6.806;2022-09-09T12:40:58;228.93;;;215.82;;
46613;SDS011;32338;50.430;6.806;2022-09-09T12:43:25;252.45;;;237.93;;
46613;SDS011;32338;50.430;6.806;2022-09-09T12:45:54;247.98;;;233.90;;
46613;SDS011;32338;50.430;6.806;2022-09-09T12:48:28;293.67;;;276.30;;
46613;SDS011;32338;50.430;6.806;2022-09-09T12:51:01;317.95;;;298.92;;
46613;SDS011;32338;50.430;6.806;2022-09-09T12:53:31;340.52;;;320.30;;
46613;SDS011;32338;50.430;6.806;2022-09-09T12:56:00;354.88;;;333.63;;
46613;SDS011;32338;50.430;6.806;2022-09-09T12:58:30;321.63;;;302.63;;
46613;SDS011;32338;50.430;6.806;2022-09-09T13:00:58;366.33;;;344.10;;
46613;SDS011;32338;50.430;6.806;2022-09-09T13:03:29;347.92;;;327.00;;
46613;SDS011;32338;50.430;6.806;2022-09-09T13:05:57;362.35;;;340.38;;
46613;SDS011;32338;50.430;6.806;2022-09-09T13:08:25;337.55;;;317.60;;
46613;SDS011;32338;50.430;6.806;2022-09-09T13:10:53;352.40;;;331.35;;
46613;SDS011;32338;50.430;6.806;2022-09-09T13:13:25;334.85;;;315.30;;
46613;SDS011;32338;50.430;6.806;2022-09-09T13:15:55;382.67;;;359.52;;
46613;SDS011;32338;50.430;6.806;2022-09-09T13:18:24;350.73;;;329.83;;
46613;SDS011;32338;50.430;6.806;2022-09-09T13:20:54;364.92;;;342.60;;
46613;SDS011;32338;50.430;6.806;2022-09-09T13:23:23;336.63;;;316.98;;
46613;SDS011;32338;50.430;6.806;2022-09-09T13:25:53;366.35;;;344.55;;
46613;SDS011;32338;50.430;6.806;2022-09-09T13:28:21;375.13;;;351.45;;
46613;SDS011;32338;50.430;6.806;2022-09-09T13:30:57;369.15;;;347.50;;
46613;SDS011;32338;50.430;6.806;2022-09-09T13:33:31;353.08;;;332.15;;
46613;SDS011;32338;50.430;6.806;2022-09-09T13:36:01;374.92;;;352.38;;
46613;SDS011;32338;50.430;6.806;2022-09-09T13:38:31;350.50;;;330.02;;
46613;SDS011;32338;50.430;6.806;2022-09-09T13:41:00;371.30;;;348.85;;
46613;SDS011;32338;50.430;6.806;2022-09-09T13:43:29;365.33;;;343.80;;
46613;SDS011;32338;50.430;6.806;2022-09-09T13:46:00;344.92;;;324.48;;
46613;SDS011;32338;50.430;6.806;2022-09-09T13:48:28;330.42;;;311.05;;
46613;SDS011;32338;50.430;6.806;2022-09-09T13:50:57;329.27;;;310.00;;
46613;SDS011;32338;50.430;6.806;2022-09-09T13:53:27;338.77;;;318.75;;
46613;SDS011;32338;50.430;6.806;2022-09-09T13:55:55;330.65;;;311.20;;
46613;SDS011;32338;50.430;6.806;2022-09-09T13:58:22;332.05;;;312.15;;
46613;SDS011;32338;50.430;6.806;2022-09-09T14:00:50;315.40;;;297.23;;
46613;SDS011;32338;50.430;6.806;2022-09-09T14:03:17;330.13;;;310.90;;
46613;SDS011;32338;50.430;6.806;2022-09-09T14:05:44;316.40;;;297.63;;
46613;SDS011;32338;50.430;6.806;2022-09-09T14:08:15;332.05;;;312.23;;
46613;SDS011;32338;50.430;6.806;2022-09-09T14:10:48;307.73;;;289.95;;
46613;SDS011;32338;50.430;6.806;2022-09-09T14:13:15;347.60;;;327.15;;
46613;SDS011;32338;50.430;6.806;2022-09-09T14:15:42;324.52;;;305.52;;
46613;SDS011;32338;50.430;6.806;2022-09-09T14:18:09;365.58;;;344.15;;
46613;SDS011;32338;50.430;6.806;2022-09-09T14:20:38;329.10;;;309.30;;
46613;SDS011;32338;50.430;6.806;2022-09-09T14:23:04;331.23;;;312.02;;